Time;durP1;ratioP1;P1;durP2;ratioP2;P2;SDS_P1;SDS_P2;PMS_P1;PMS_P2;Temp;Humidity;BMP_temperature;BMP_pressure;BME280_temperature;BME280_humidity;BME280_pressure;Samples;Min_cycle;Max_cycle;Signal;HPM_P1;HPM_P2
2021/07/19 00:00:34;;;;;;;18.83;9.05;;;;;;;21.79;61.71;95700.53;5053541;28;20076;-73
2021/07/19 00:03:00;;;;;;;10.07;8.70;;;;;;;21.84;61.53;95700.88;5053557;28;20036;-74
2021/07/19 00:05:27;;;;;;;10.88;9.30;;;;;;;21.79;60.91;95701.34;5053151;28;20383;-74
2021/07/19 00:07:53;;;;;;;12.55;8.70;;;;;;;21.73;61.67;95698.41;5052982;28;20036;-73
2021/07/19 00:10:20;;;;;;;12.73;9.20;;;;;;;21.66;61.71;95700.81;5053473;28;20375;-71
2021/07/19 00:12:50;;;;;;;15.05;8.73;;;;;;;21.61;61.74;95695.94;5053507;28;20028;-72
2021/07/19 00:15:25;;;;;;;16.27;10.35;;;;;;;21.62;62.08;95699.44;5053052;28;20025;-74
2021/07/19 00:17:51;;;;;;;13.48;8.70;;;;;;;21.62;61.89;95697.63;5053333;28;20029;-72
2021/07/19 00:20:17;;;;;;;18.10;8.65;;;;;;;21.67;62.19;95703.31;5053213;28;20021;-71
2021/07/19 00:22:44;;;;;;;15.13;9.13;;;;;;;21.71;61.77;95698.56;5052555;28;20379;-72
2021/07/19 00:25:12;;;;;;;16.33;8.85;;;;;;;21.71;61.50;95701.22;5053293;28;20036;-71
2021/07/19 00:27:40;;;;;;;12.90;9.85;;;;;;;21.71;61.77;95698.56;5053225;28;20474;-71
2021/07/19 00:30:10;;;;;;;15.63;9.43;;;;;;;21.65;61.45;95689.34;5053106;28;20036;-71
2021/07/19 00:32:35;;;;;;;12.73;8.23;;;;;;;21.66;62.00;95692.84;5052776;28;20470;-72
2021/07/19 00:35:01;;;;;;;11.93;8.48;;;;;;;21.57;62.04;95691.91;5053054;28;20025;-74
2021/07/19 00:37:27;;;;;;;16.95;11.27;;;;;;;21.57;61.84;95697.22;5052761;28;20056;-73
2021/07/19 00:39:52;;;;;;;13.30;9.63;;;;;;;21.54;61.89;95689.53;5053211;28;20036;-73
2021/07/19 00:42:18;;;;;;;14.30;9.38;;;;;;;21.49;62.08;95681.19;5052971;28;20021;-72
2021/07/19 00:44:43;;;;;;;9.50;8.15;;;;;;;21.49;62.31;95676.69;5053070;28;20032;-71
2021/07/19 00:47:11;;;;;;;19.38;9.07;;;;;;;21.54;62.17;95674.41;5052418;28;20047;-73
2021/07/19 00:49:37;;;;;;;17.50;9.05;;;;;;;21.54;62.14;95673.56;5053043;28;20370;-72
2021/07/19 00:52:03;;;;;;;16.55;10.15;;;;;;;21.50;62.53;95672.19;5052654;28;20028;-71
2021/07/19 00:54:31;;;;;;;12.63;9.15;;;;;;;21.58;62.68;95674.94;5052932;28;20052;-73
2021/07/19 00:56:59;;;;;;;15.32;8.93;;;;;;;21.64;62.17;95681.53;5052881;28;20017;-71
2021/07/19 00:59:25;;;;;;;10.40;9.15;;;;;;;21.66;61.74;95683.03;5082970;28;20090;-73
2021/07/19 01:01:54;;;;;;;13.10;8.40;;;;;;;21.69;61.75;95687.22;5052828;28;20075;-73
2021/07/19 01:04:21;;;;;;;19.52;10.45;;;;;;;21.71;61.62;95683.41;5052750;28;20029;-73
2021/07/19 01:06:48;;;;;;;12.13;9.10;;;;;;;21.74;61.84;95678.78;5052569;28;20061;-71
2021/07/19 01:09:15;;;;;;;12.15;9.40;;;;;;;21.74;62.30;95673.47;5052840;28;20017;-73
2021/07/19 01:11:40;;;;;;;15.27;10.27;;;;;;;21.66;62.02;95671.53;5052787;28;20099;-70
2021/07/19 01:14:06;;;;;;;12.55;8.77;;;;;;;21.59;62.06;95682.78;5052786;28;20467;-72
2021/07/19 01:16:32;;;;;;;11.05;8.50;;;;;;;21.60;61.92;95675.66;5052378;28;20083;-72
2021/07/19 01:18:58;;;;;;;11.57;9.43;;;;;;;21.61;62.15;95682.63;5052668;28;20516;-73
2021/07/19 01:21:23;;;;;;;14.27;11.63;;;;;;;21.58;62.21;95672.28;5056619;28;20116;-74
2021/07/19 01:24:24;;;;;;;11.98;9.25;;;;;;;21.52;62.43;95670.25;5056502;28;20474;-74
2021/07/19 01:26:58;;;;;;;15.13;11.18;;;;;;;21.44;62.89;95660.34;5055774;28;20029;-73
2021/07/19 01:29:24;;;;;;;10.60;8.57;;;;;;;21.30;62.88;95669.63;5056540;28;20028;-72
2021/07/19 01:31:52;;;;;;;12.18;9.00;;;;;;;21.30;62.98;95659.00;5055208;28;20386;-73
2021/07/19 01:34:27;;;;;;;14.18;8.75;;;;;;;21.20;63.46;95651.88;5056375;28;20025;-73
2021/07/19 01:36:56;;;;;;;10.45;9.13;;;;;;;21.13;63.40;95658.78;5055461;28;20114;-72
2021/07/19 01:39:23;;;;;;;16.58;10.63;;;;;;;21.11;63.50;95655.44;5056270;28;20043;-72
2021/07/19 01:41:50;;;;;;;12.68;9.88;;;;;;;21.04;63.63;95657.84;5056270;28;20108;-73
2021/07/19 01:44:16;;;;;;;18.05;9.98;;;;;;;21.02;63.70;95657.16;5056076;28;20491;-73
2021/07/19 01:46:43;;;;;;;15.00;9.90;;;;;;;20.99;63.99;95659.25;5056146;28;20025;-71
2021/07/19 01:49:11;;;;;;;18.33;10.10;;;;;;;20.94;63.89;95671.16;5055995;28;20025;-72
2021/07/19 01:51:38;;;;;;;15.15;10.77;;;;;;;20.82;64.26;95665.16;5056176;28;20424;-74
2021/07/19 01:54:04;;;;;;;15.50;9.43;;;;;;;20.78;64.56;95665.59;5055790;28;20052;-74
2021/07/19 01:56:30;;;;;;;14.15;9.07;;;;;;;20.76;64.37;95670.19;5056038;28;20033;-73
2021/07/19 01:58:59;;;;;;;15.23;11.30;;;;;;;20.73;64.42;95679.28;5055907;28;20024;-73
2021/07/19 02:01:26;;;;;;;14.30;10.48;;;;;;;20.69;64.39;95677.91;5055287;28;20033;-74
2021/07/19 02:03:52;;;;;;;15.25;10.60;;;;;;;20.69;65.00;95683.22;5055852;28;20029;-72
2021/07/19 02:06:18;;;;;;;12.77;10.18;;;;;;;20.67;64.97;95677.19;5055629;28;20430;-71
2021/07/19 02:08:48;;;;;;;13.18;10.00;;;;;;;20.62;64.74;95687.44;5055865;28;20078;-74
2021/07/19 02:11:17;;;;;;;11.85;10.60;;;;;;;20.60;64.90;95682.25;5055832;28;20386;-73
2021/07/19 02:13:45;;;;;;;10.63;9.52;;;;;;;20.60;64.78;95684.91;5055364;28;20021;-74
2021/07/19 02:16:12;;;;;;;15.25;10.48;;;;;;;20.53;65.41;95695.25;5055700;28;20029;-72
2021/07/19 02:18:41;;;;;;;15.52;10.52;;;;;;;20.45;64.86;95695.13;5055740;28;20025;-73
2021/07/19 02:21:07;;;;;;;12.88;9.02;;;;;;;20.45;65.21;95709.25;5055492;28;20032;-74
2021/07/19 02:23:36;;;;;;;13.43;10.63;;;;;;;20.37;65.49;95708.25;5055347;28;20025;-71
2021/07/19 02:26:04;;;;;;;13.35;10.63;;;;;;;20.31;65.51;95705.19;5055201;28;20107;-74
2021/07/19 02:28:32;;;;;;;15.55;10.13;;;;;;;20.25;65.90;95715.53;5055543;28;20027;-72
2021/07/19 02:31:00;;;;;;;16.42;9.70;;;;;;;20.25;65.79;95713.72;5054724;28;20021;-74
2021/07/19 02:33:26;;;;;;;11.63;8.82;;;;;;;20.15;65.41;95700.44;5055376;28;20024;-74
2021/07/19 02:35:53;;;;;;;12.55;11.20;;;;;;;20.13;65.66;95706.84;5055363;28;20078;-75
2021/07/19 02:38:20;;;;;;;15.15;8.82;;;;;;;20.14;66.14;95711.22;5054908;28;20106;-73
2021/07/19 02:40:47;;;;;;;18.10;11.00;;;;;;;20.08;66.04;95709.94;5054509;28;20056;-72
2021/07/19 02:43:14;;;;;;;13.50;9.98;;;;;;;19.96;66.13;95703.91;5055107;28;20478;-72
2021/07/19 02:45:44;;;;;;;15.13;10.43;;;;;;;19.91;66.05;95709.63;5055187;28;20044;-71
2021/07/19 02:48:12;;;;;;;14.85;10.27;;;;;;;19.89;66.54;95703.59;5055148;28;20028;-75
2021/07/19 02:50:39;;;;;;;16.88;10.95;;;;;;;19.81;66.54;95709.56;5054733;28;20021;-70
2021/07/19 02:53:11;;;;;;;12.93;9.30;;;;;;;19.73;66.81;95697.97;5054735;28;20098;-70
2021/07/19 02:55:39;;;;;;;16.67;10.73;;;;;;;19.65;67.46;95696.00;5054942;28;20597;-72
2021/07/19 02:58:06;;;;;;;14.85;11.10;;;;;;;19.62;67.05;95694.44;5054244;28;20032;-72
2021/07/19 03:00:33;;;;;;;12.75;9.65;;;;;;;19.66;66.92;95695.84;5054516;28;20502;-74
2021/07/19 03:03:03;;;;;;;15.10;10.40;;;;;;;19.69;67.25;95702.72;5054778;28;20024;-72
2021/07/19 03:05:32;;;;;;;16.27;10.45;;;;;;;19.71;67.19;95703.41;5054843;28;20483;-72
2021/07/19 03:07:59;;;;;;;12.77;10.35;;;;;;;19.67;67.19;95713.47;5054685;28;20017;-72
2021/07/19 03:10:27;;;;;;;14.05;12.00;;;;;;;19.65;67.30;95711.91;5054120;28;20025;-71
2021/07/19 03:12:59;;;;;;;16.60;9.50;;;;;;;19.68;67.43;95711.63;5054614;28;20167;-74
2021/07/19 03:15:28;;;;;;;20.25;9.40;;;;;;;19.72;67.21;95714.88;5054532;28;20066;-73
2021/07/19 03:17:56;;;;;;;12.07;9.52;;;;;;;19.72;66.89;95709.56;5054514;28;20029;-73
2021/07/19 03:20:23;;;;;;;11.38;9.95;;;;;;;19.73;66.89;95721.84;5054426;28;20083;-71
2021/07/19 03:22:52;;;;;;;11.20;9.98;;;;;;;19.68;66.82;95716.94;5054041;28;20124;-74
2021/07/19 03:25:23;;;;;;;11.30;10.05;;;;;;;19.67;67.36;95721.44;5054434;28;20036;-70
2021/07/19 03:27:50;;;;;;;22.77;12.57;;;;;;;19.64;67.62;95716.38;5054453;28;20127;-75
2021/07/19 03:30:17;;;;;;;14.75;10.80;;;;;;;19.62;68.35;95723.63;5054290;28;20025;-72
2021/07/19 03:32:43;;;;;;;12.77;10.45;;;;;;;19.65;68.14;95727.81;5054150;28;20543;-72
2021/07/19 03:35:10;;;;;;;15.27;10.43;;;;;;;19.70;68.40;95709.69;5053779;28;20360;-75
2021/07/19 03:37:36;;;;;;;12.57;9.73;;;;;;;19.73;68.03;95724.50;5054045;28;20033;-71
2021/07/19 03:40:03;;;;;;;14.75;10.13;;;;;;;19.75;67.92;95727.88;5054235;28;20473;-72
2021/07/19 03:42:29;;;;;;;15.68;10.70;;;;;;;19.80;67.98;95730.94;5053279;28;20029;-74
2021/07/19 03:44:56;;;;;;;14.35;10.40;;;;;;;19.90;67.47;95736.28;5053219;28;20021;-73
2021/07/19 03:47:22;;;;;;;17.02;12.68;;;;;;;19.98;67.66;95730.31;5053874;28;20021;-72
2021/07/19 03:49:48;;;;;;;16.08;10.18;;;;;;;19.97;67.38;95739.22;5053810;28;20017;-73
2021/07/19 03:52:15;;;;;;;11.35;10.20;;;;;;;20.08;67.71;95745.28;5051974;28;20498;-75
2021/07/19 03:54:41;;;;;;;17.38;9.75;;;;;;;20.06;67.34;95747.25;5053798;28;20028;-72
2021/07/19 03:57:09;;;;;;;17.15;10.13;;;;;;;20.10;67.29;95741.66;5053622;28;20107;-72
2021/07/19 03:59:35;;;;;;;12.52;9.98;;;;;;;20.08;67.54;95747.09;5053648;28;20107;-74
2021/07/19 04:02:10;;;;;;;14.88;9.15;;;;;;;20.11;67.39;95757.44;5053551;28;20441;-71
2021/07/19 04:04:41;;;;;;;12.50;9.82;;;;;;;20.34;67.38;95759.84;5067409;28;20094;-73
2021/07/19 04:07:12;;;;;;;16.50;9.90;;;;;;;20.57;66.50;95764.88;5073629;28;20033;-74
2021/07/19 04:09:39;;;;;;;17.00;9.85;;;;;;;20.68;66.16;95763.91;5062706;28;20537;-72
2021/07/19 04:12:09;;;;;;;14.32;9.80;;;;;;;20.77;66.13;95776.31;5052981;28;20029;-71
2021/07/19 04:14:35;;;;;;;;;;;;;;;20.78;65.96;95769.22;5053935;28;20075;-73
2021/07/19 04:17:01;;;;;;;10.98;8.85;;;;;;;20.89;65.69;95763.72;5053337;28;19916;-72
2021/07/19 04:19:27;;;;;;;12.63;9.13;;;;;;;20.97;65.26;95771.03;5052958;28;20021;-70
2021/07/19 04:21:53;;;;;;;16.05;9.98;;;;;;;21.02;65.64;95760.81;5052844;28;20048;-72
2021/07/19 04:24:19;;;;;;;10.75;9.15;;;;;;;21.28;65.55;95762.84;5052377;28;20490;-73
2021/07/19 04:26:45;;;;;;;10.30;9.02;;;;;;;21.55;64.40;95773.69;5052921;28;20083;-70
2021/07/19 04:29:11;;;;;;;11.68;9.85;;;;;;;21.63;64.15;95765.81;5053235;28;20028;-73
2021/07/19 04:31:37;;;;;;;11.50;9.52;;;;;;;21.84;64.02;95765.63;5051909;28;20363;-71
2021/07/19 04:34:02;;;;;;;14.70;9.40;;;;;;;21.98;63.71;95774.09;5053081;28;20083;-73
2021/07/19 04:36:28;;;;;;;10.60;9.57;;;;;;;22.21;63.50;95776.31;5053126;28;20033;-70
2021/07/19 04:38:55;;;;;;;11.23;9.57;;;;;;;22.61;62.45;95782.25;5053123;28;20064;-72
2021/07/19 04:41:21;;;;;;;11.18;9.18;;;;;;;22.93;61.59;95782.66;5053061;28;20021;-71
2021/07/19 04:43:47;;;;;;;15.52;9.23;;;;;;;23.28;61.31;95777.41;5052946;28;20029;-71
2021/07/19 04:46:17;;;;;;;11.85;8.32;;;;;;;23.44;59.64;95777.56;5053020;28;20028;-70
2021/07/19 04:48:43;;;;;;;14.25;9.60;;;;;;;23.54;59.62;95788.09;5052997;28;20070;-71
2021/07/19 04:51:09;;;;;;;11.35;8.73;;;;;;;23.43;60.07;95783.06;5052879;28;20386;-70
2021/07/19 04:53:35;;;;;;;17.73;9.73;;;;;;;23.40;61.36;95780.69;5052679;28;20544;-71
2021/07/19 04:56:02;;;;;;;11.50;8.90;;;;;;;23.39;61.19;95781.69;5052533;28;20025;-70
2021/07/19 04:58:32;;;;;;;14.93;9.80;;;;;;;23.48;61.70;95780.75;5052959;28;20045;-72
2021/07/19 05:01:05;;;;;;;19.92;10.18;;;;;;;23.54;61.83;95780.09;5053069;28;20029;-73
2021/07/19 05:03:35;;;;;;;13.15;8.88;;;;;;;23.55;61.21;95783.63;5052813;28;20037;-70
2021/07/19 05:06:01;;;;;;;17.23;10.60;;;;;;;23.64;61.95;95793.34;5052924;28;20116;-70
2021/07/19 05:08:30;;;;;;;12.65;8.73;;;;;;;23.86;62.19;95785.75;5052970;28;20029;-70
2021/07/19 05:10:56;;;;;;;10.80;8.40;;;;;;;24.14;61.14;95790.91;5052863;28;20181;-70
2021/07/19 05:13:22;;;;;;;9.82;8.82;;;;;;;24.29;60.40;95799.13;5052637;28;20021;-70
2021/07/19 05:15:48;;;;;;;11.45;9.48;;;;;;;24.38;59.59;95783.94;5052794;28;20021;-73
2021/07/19 05:18:18;;;;;;;12.15;8.60;;;;;;;24.65;59.68;95787.34;5052809;28;20020;-72
2021/07/19 05:20:44;;;;;;;10.45;8.43;;;;;;;25.16;59.99;95790.91;5052745;28;20033;-71
2021/07/19 05:23:11;;;;;;;9.15;8.35;;;;;;;25.53;57.88;95788.66;5052519;28;20479;-71
2021/07/19 05:25:37;;;;;;;12.02;8.50;;;;;;;25.72;57.84;95791.00;5052704;28;20490;-71
2021/07/19 05:28:05;;;;;;;12.02;9.23;;;;;;;26.04;57.57;95784.84;5052526;28;20028;-70
2021/07/19 05:30:32;;;;;;;11.75;8.05;;;;;;;26.58;56.70;95778.69;5052731;28;20483;-71
2021/07/19 05:32:58;;;;;;;12.63;8.30;;;;;;;27.06;54.15;95783.06;5052710;28;20029;-70
2021/07/19 05:35:24;;;;;;;10.43;8.00;;;;;;;27.55;53.77;95780.94;5052608;28;20540;-70
2021/07/19 05:37:51;;;;;;;12.00;7.30;;;;;;;28.05;52.47;95784.94;5052522;28;20025;-70
2021/07/19 05:40:18;;;;;;;10.05;7.63;;;;;;;28.36;51.17;95792.75;5052513;28;20021;-69
2021/07/19 05:42:43;;;;;;;10.93;7.68;;;;;;;28.57;50.63;95793.00;5052438;28;20017;-69
2021/07/19 05:45:10;;;;;;;11.80;8.15;;;;;;;28.70;51.06;95790.44;5052487;28;20028;-70
2021/07/19 05:47:36;;;;;;;12.48;8.45;;;;;;;28.94;49.21;95790.25;5052371;28;20394;-70
2021/07/19 05:50:03;;;;;;;12.57;8.25;;;;;;;29.08;51.68;95793.91;5052484;28;20017;-69
2021/07/19 05:52:29;;;;;;;9.60;7.90;;;;;;;29.23;48.23;95789.25;5052220;28;20033;-70
2021/07/19 05:54:56;;;;;;;10.13;7.25;;;;;;;29.42;47.66;95791.47;5052437;28;20018;-70
2021/07/19 05:57:24;;;;;;;14.38;7.30;;;;;;;29.54;48.47;95792.59;5052375;28;20028;-69
2021/07/19 05:59:50;;;;;;;11.35;8.00;;;;;;;29.77;49.52;95794.25;5052351;28;20053;-70
2021/07/19 06:02:17;;;;;;;10.73;7.43;;;;;;;30.06;47.61;95799.53;5052346;28;20052;-70
2021/07/19 06:04:43;;;;;;;11.15;7.80;;;;;;;30.11;46.88;95803.31;5052336;28;20033;-70
2021/07/19 06:07:09;;;;;;;10.48;6.88;;;;;;;30.09;46.72;95799.16;5054080;28;20036;-69
2021/07/19 06:09:35;;;;;;;13.98;7.72;;;;;;;29.91;45.72;95802.41;5055932;28;20040;-69
2021/07/19 06:12:00;;;;;;;11.88;7.70;;;;;;;29.96;46.67;95808.00;5055831;28;20027;-70
2021/07/19 06:14:26;;;;;;;13.05;8.35;;;;;;;30.17;47.84;95806.25;5055752;28;20025;-70
2021/07/19 06:16:52;;;;;;;13.00;7.20;;;;;;;30.31;46.33;95807.16;5055713;28;20025;-70
2021/07/19 06:19:18;;;;;;;13.30;7.40;;;;;;;30.67;45.81;95803.31;5055703;28;20040;-70
2021/07/19 06:21:44;;;;;;;12.40;8.07;;;;;;;30.51;46.18;95812.63;5055644;28;20386;-69
2021/07/19 06:24:09;;;;;;;9.27;7.15;;;;;;;30.42;44.51;95803.88;5055491;28;20028;-70
2021/07/19 06:26:35;;;;;;;17.40;8.15;;;;;;;30.65;44.86;95800.00;5055555;28;20025;-69
2021/07/19 06:29:01;;;;;;;12.70;7.18;;;;;;;30.83;43.90;95804.00;5055449;28;20022;-70
2021/07/19 06:31:27;;;;;;;9.48;7.47;;;;;;;30.54;43.67;95800.56;5055448;28;20110;-70
2021/07/19 06:33:52;;;;;;;12.95;7.50;;;;;;;30.33;44.32;95800.53;5055402;28;20111;-70
2021/07/19 06:36:18;;;;;;;12.07;7.18;;;;;;;30.56;44.59;95799.38;5055385;28;20112;-70
2021/07/19 06:38:44;;;;;;;11.55;7.18;;;;;;;30.65;43.27;95794.63;5055326;28;20037;-70
2021/07/19 06:41:12;;;;;;;10.77;8.05;;;;;;;30.68;43.50;95799.59;5055263;28;20025;-69
2021/07/19 06:43:39;;;;;;;12.00;7.38;;;;;;;30.78;45.06;95804.63;5055219;28;20378;-70
2021/07/19 06:46:05;;;;;;;10.98;7.32;;;;;;;30.79;44.08;95800.06;5055218;28;20025;-69
2021/07/19 06:48:31;;;;;;;14.60;8.07;;;;;;;31.18;44.94;95803.81;5055014;28;20498;-69
2021/07/19 06:50:57;;;;;;;10.93;7.47;;;;;;;31.64;44.99;95807.56;5055041;28;20032;-69
2021/07/19 06:53:22;;;;;;;10.30;7.65;;;;;;;31.95;42.34;95810.66;5054699;28;20410;-69
2021/07/19 06:55:48;;;;;;;10.77;7.47;;;;;;;31.54;42.03;95801.75;5055101;28;20033;-69
2021/07/19 06:58:14;;;;;;;9.07;7.13;;;;;;;31.54;43.85;95798.25;5054925;28;20482;-70
2021/07/19 07:00:39;;;;;;;10.95;7.03;;;;;;;31.70;42.41;95803.22;5054924;28;20028;-70
2021/07/19 07:03:05;;;;;;;12.70;6.57;;;;;;;31.74;42.94;95799.03;5054798;28;20364;-69
2021/07/19 07:05:31;;;;;;;14.05;7.05;;;;;;;31.82;40.81;95794.44;5054874;28;20041;-70
2021/07/19 07:07:56;;;;;;;10.95;7.18;;;;;;;32.24;41.83;95805.75;5054850;28;20025;-69
2021/07/19 07:10:23;;;;;;;17.60;6.45;;;;;;;32.30;40.59;95804.09;5054694;28;20035;-69
2021/07/19 07:12:48;;;;;;;17.48;7.00;;;;;;;32.24;38.94;95794.94;5054676;28;20486;-69
2021/07/19 07:15:14;;;;;;;11.68;6.40;;;;;;;32.50;38.82;95798.59;5054599;28;20031;-70
2021/07/19 07:17:41;;;;;;;9.93;7.65;;;;;;;31.88;40.06;95799.00;5054573;28;20086;-71
2021/07/19 07:20:09;;;;;;;10.40;6.70;;;;;;;31.48;40.93;95803.44;5054713;28;20032;-71
2021/07/19 07:22:35;;;;;;;9.00;6.63;;;;;;;31.35;40.64;95817.78;5054389;28;20025;-70
2021/07/19 07:25:01;;;;;;;16.58;7.50;;;;;;;31.21;40.92;95805.31;5054363;28;20019;-69
2021/07/19 07:27:27;;;;;;;9.85;6.18;;;;;;;31.19;40.82;95800.09;5054492;28;20103;-70
2021/07/19 07:29:52;;;;;;;17.23;8.68;;;;;;;31.37;41.76;95801.38;5054398;28;20566;-71
2021/07/19 07:32:19;;;;;;;11.98;7.25;;;;;;;31.24;40.46;95805.69;5054287;28;20112;-71
2021/07/19 07:34:45;;;;;;;8.80;7.25;;;;;;;31.21;40.54;95800.72;5054181;28;20036;-70
2021/07/19 07:37:12;;;;;;;14.30;6.97;;;;;;;31.22;40.58;95798.84;5054277;28;20108;-70
2021/07/19 07:39:40;;;;;;;16.08;7.28;;;;;;;31.31;40.41;95799.47;5054128;28;20383;-70
2021/07/19 07:42:05;;;;;;;16.17;7.10;;;;;;;31.45;39.90;95795.75;5054068;28;20049;-71
2021/07/19 07:44:32;;;;;;;16.63;7.10;;;;;;;31.57;40.74;95790.53;5053959;28;20554;-72
2021/07/19 07:46:57;;;;;;;11.00;7.40;;;;;;;31.74;40.48;95790.94;5054063;28;20017;-71
2021/07/19 07:49:26;;;;;;;11.27;7.18;;;;;;;31.84;41.47;95793.19;5053917;28;20028;-72
2021/07/19 07:51:52;;;;;;;15.55;6.93;;;;;;;31.54;39.86;95795.53;5053610;28;20108;-72
2021/07/19 07:54:18;;;;;;;16.55;6.97;;;;;;;31.47;41.06;95795.53;5053783;28;20025;-71
2021/07/19 07:56:44;;;;;;;11.50;6.68;;;;;;;31.20;40.28;95795.53;5053899;28;20483;-70
2021/07/19 07:59:10;;;;;;;8.75;6.75;;;;;;;31.36;41.98;95792.44;5053794;28;20017;-72
2021/07/19 08:01:36;;;;;;;17.13;7.50;;;;;;;31.56;42.70;95790.75;5052465;28;20028;-70
2021/07/19 08:04:01;;;;;;;12.10;7.68;;;;;;;31.68;42.82;95794.47;5053625;28;20418;-72
2021/07/19 08:06:27;;;;;;;12.63;7.80;;;;;;;31.70;41.85;95794.25;5053618;28;20104;-71
2021/07/19 08:08:53;;;;;;;13.25;7.57;;;;;;;31.46;39.90;95793.88;5053713;28;20033;-72
2021/07/19 08:11:19;;;;;;;9.60;7.35;;;;;;;31.48;41.18;95797.22;5053617;28;20025;-71
2021/07/19 08:13:44;;;;;;;13.35;7.22;;;;;;;31.34;41.02;95791.78;5053543;28;20379;-70
2021/07/19 08:16:10;;;;;;;14.63;8.52;;;;;;;31.60;42.46;95797.41;5053501;28;20016;-71
2021/07/19 08:18:35;;;;;;;11.95;7.88;;;;;;;31.75;41.25;95789.03;5053364;28;20025;-70
2021/07/19 08:21:01;;;;;;;9.25;7.03;;;;;;;32.01;39.56;95798.16;5053427;28;20029;-71
2021/07/19 08:23:27;;;;;;;18.83;7.43;;;;;;;32.07;40.77;95791.06;5053245;28;20075;-71
2021/07/19 08:25:52;;;;;;;11.48;7.38;;;;;;;32.27;40.47;95797.22;5053282;28;20029;-69
2021/07/19 08:28:18;;;;;;;9.82;7.72;;;;;;;32.06;39.13;95795.66;5053289;28;20537;-70
2021/07/19 08:30:44;;;;;;;12.20;8.20;;;;;;;32.21;40.07;95794.56;5052945;28;20032;-71
2021/07/19 08:33:09;;;;;;;10.45;7.30;;;;;;;32.21;39.15;95784.59;5053184;28;20024;-70
2021/07/19 08:35:35;;;;;;;17.67;7.53;;;;;;;32.31;39.68;95789.53;5053220;28;20021;-69
2021/07/19 08:38:02;;;;;;;12.45;7.45;;;;;;;31.90;39.60;95784.22;5053129;28;20029;-72
2021/07/19 08:40:28;;;;;;;15.27;7.97;;;;;;;31.80;40.20;95789.25;5053124;28;20024;-71
2021/07/19 08:42:58;;;;;;;13.68;7.63;;;;;;;31.63;41.83;95795.09;5053182;28;20539;-70
2021/07/19 08:45:25;;;;;;;10.80;7.47;;;;;;;31.81;42.79;95784.69;5053134;28;20029;-72
2021/07/19 08:47:52;;;;;;;13.48;7.63;;;;;;;32.11;40.82;95781.50;5053082;28;20029;-71
2021/07/19 08:50:21;;;;;;;11.52;8.00;;;;;;;32.26;41.11;95779.34;5052975;28;20041;-70
2021/07/19 08:52:53;;;;;;;13.63;7.70;;;;;;;32.12;40.18;95781.25;5052795;28;20448;-70
2021/07/19 08:55:19;;;;;;;14.90;7.97;;;;;;;31.55;39.72;95783.69;5053037;28;20033;-72
2021/07/19 08:57:47;;;;;;;11.32;7.35;;;;;;;31.58;41.75;95783.28;5052960;28;20021;-70
2021/07/19 09:00:14;;;;;;;14.25;8.07;;;;;;;31.25;42.39;95788.47;5052941;28;20150;-71
2021/07/19 09:02:40;;;;;;;13.55;8.38;;;;;;;31.46;41.06;95781.22;5052794;28;20036;-71
2021/07/19 09:05:06;;;;;;;14.00;7.68;;;;;;;31.45;41.92;95790.34;5052904;28;20026;-71
2021/07/19 09:07:32;;;;;;;9.38;7.90;;;;;;;31.28;41.52;95774.53;5052838;28;20391;-71
2021/07/19 09:09:59;;;;;;;14.98;7.47;;;;;;;31.25;42.64;95785.78;5052935;28;20049;-70
2021/07/19 09:12:45;;;;;;;14.07;7.93;;;;;;;31.30;42.22;95777.03;5052921;28;20025;-70
2021/07/19 09:15:14;;;;;;;20.38;8.43;;;;;;;31.68;42.26;95778.25;5052813;28;20017;-71
2021/07/19 09:17:40;;;;;;;12.27;6.93;;;;;;;31.94;40.92;95773.88;5052625;28;20017;-70
2021/07/19 09:20:13;;;;;;;14.25;7.32;;;;;;;32.01;40.82;95774.66;5052580;28;20025;-71
2021/07/19 09:22:39;;;;;;;10.52;7.43;;;;;;;32.19;42.15;95777.72;5052763;28;20024;-71
2021/07/19 09:25:16;;;;;;;9.20;6.90;;;;;;;32.05;38.64;95775.06;5052694;28;20049;-70
2021/07/19 09:28:02;;;;;;;11.68;7.00;;;;;;;31.88;38.76;95766.56;5052663;28;20486;-71
2021/07/19 09:30:29;;;;;;;10.18;7.30;;;;;;;31.70;39.27;95769.94;5052707;28;20036;-71
2021/07/19 09:33:00;;;;;;;10.75;7.40;;;;;;;31.52;39.46;95772.25;5052637;28;20032;-69
2021/07/19 09:35:26;;;;;;;;;;;;;;;31.22;39.89;95761.88;5053027;28;20040;-70
2021/07/19 09:37:52;;;;;;;13.77;6.78;;;;;;;31.23;41.44;95771.66;5052660;28;19920;-69
2021/07/19 09:40:25;;;;;;;9.88;6.68;;;;;;;31.33;38.96;95775.81;5052515;28;20021;-70
2021/07/19 09:42:51;;;;;;;11.75;6.32;;;;;;;31.20;39.40;95766.66;5055582;28;20126;-71
2021/07/19 09:45:31;;;;;;;19.58;7.40;;;;;;;31.28;38.09;95776.44;5056340;28;20025;-71
2021/07/19 09:48:05;;;;;;;18.85;6.82;;;;;;;31.25;38.98;95772.28;5056406;28;20471;-69
2021/07/19 09:50:55;;;;;;;10.35;6.28;;;;;;;31.27;39.51;95772.88;5056287;28;20109;-72
2021/07/19 09:53:35;;;;;;;10.82;6.43;;;;;;;31.57;38.77;95779.72;5055900;28;20490;-71
2021/07/19 09:56:19;;;;;;;11.02;6.78;;;;;;;31.58;39.11;95765.19;5055891;28;20025;-70
2021/07/19 09:58:47;;;;;;;11.05;6.38;;;;;;;31.37;39.72;95777.06;5056155;28;20029;-71
2021/07/19 10:01:25;;;;;;;14.15;6.63;;;;;;;31.45;40.67;95771.44;5056066;28;20036;-70
2021/07/19 10:04:11;;;;;;;10.88;7.13;;;;;;;31.65;39.51;95775.97;5055917;28;20033;-69
2021/07/19 10:06:40;;;;;;;10.68;6.47;;;;;;;31.80;39.56;95780.31;5056017;28;20021;-72
2021/07/19 10:09:13;;;;;;;14.55;7.03;;;;;;;31.82;40.39;95772.81;5055902;28;20021;-71
2021/07/19 10:11:43;;;;;;;11.77;7.53;;;;;;;31.76;39.54;95775.31;5055962;28;20036;-72
2021/07/19 10:14:09;;;;;;;14.05;6.32;;;;;;;31.60;35.83;95787.41;5056120;28;20532;-70
2021/07/19 10:16:37;;;;;;;12.68;5.90;;;;;;;31.51;39.22;95767.91;5055729;28;20032;-72
2021/07/19 10:19:04;;;;;;;15.68;5.90;;;;;;;31.48;38.70;95778.31;5055665;28;20055;-70
2021/07/19 10:21:32;;;;;;;13.55;6.50;;;;;;;31.47;38.45;95782.03;5055646;28;20074;-71
2021/07/19 10:24:04;;;;;;;11.02;7.75;;;;;;;31.75;39.37;95765.56;5055728;28;20025;-70
2021/07/19 10:26:31;;;;;;;13.32;8.18;;;;;;;32.08;40.93;95773.81;5055597;28;20489;-70
2021/07/19 10:28:58;;;;;;;19.83;8.68;;;;;;;32.28;41.69;95755.63;5054284;28;20021;-70
2021/07/19 10:31:25;;;;;;;11.63;7.55;;;;;;;31.93;41.03;95791.09;5055553;28;20021;-70
2021/07/19 10:33:52;;;;;;;9.40;6.93;;;;;;;31.94;40.72;95768.47;5055469;28;20427;-72
2021/07/19 10:36:34;;;;;;;8.35;7.38;;;;;;;32.20;40.29;95777.50;5055367;28;20017;-70
2021/07/19 10:39:09;;;;;;;11.32;6.95;;;;;;;32.00;40.40;95770.28;5055419;28;20083;-71
2021/07/19 10:41:37;;;;;;;11.98;7.60;;;;;;;31.97;40.27;95750.97;5055247;28;20029;-69
2021/07/19 10:44:08;;;;;;;14.93;7.88;;;;;;;32.00;40.95;95770.28;5055264;28;20025;-70
2021/07/19 10:46:36;;;;;;;16.73;7.60;;;;;;;31.95;40.45;95767.41;5055259;28;20033;-72
2021/07/19 10:49:13;;;;;;;12.90;8.05;;;;;;;31.85;41.24;95765.13;5055119;28;20033;-71
2021/07/19 10:51:47;;;;;;;13.68;7.80;;;;;;;31.96;39.80;95763.66;5054909;28;20024;-69
2021/07/19 10:54:14;;;;;;;8.13;7.05;;;;;;;32.27;42.39;95756.66;5054895;28;20041;-71
2021/07/19 10:56:40;;;;;;;9.20;7.65;;;;;;;32.57;41.05;95754.47;5055017;28;20023;-70
2021/07/19 10:59:06;;;;;;;11.15;7.50;;;;;;;32.61;39.93;95748.41;5055073;28;20017;-71
2021/07/19 11:01:34;;;;;;;14.65;7.88;;;;;;;31.97;40.25;95748.28;5055087;28;20455;-70
2021/07/19 11:04:02;;;;;;;10.23;8.02;;;;;;;31.71;42.67;95752.69;5054829;28;20119;-70
2021/07/19 11:06:38;;;;;;;12.60;7.78;;;;;;;31.74;40.85;95741.44;5054838;28;20094;-72
2021/07/19 11:09:06;;;;;;;11.43;7.25;;;;;;;31.90;42.27;95753.66;5054853;28;20036;-70
2021/07/19 11:11:35;;;;;;;19.90;8.32;;;;;;;31.69;42.51;95761.00;5054771;28;20356;-69
2021/07/19 11:14:06;;;;;;;13.38;7.57;;;;;;;31.59;42.36;95745.25;5054652;28;20088;-71
2021/07/19 11:16:46;;;;;;;12.77;7.95;;;;;;;31.75;42.89;95743.94;5054698;28;20470;-70
2021/07/19 11:19:15;;;;;;;15.93;8.30;;;;;;;31.36;42.15;95751.91;5054605;28;20025;-70
2021/07/19 11:21:43;;;;;;;14.52;7.45;;;;;;;31.36;42.73;95753.81;5054573;28;20033;-71
2021/07/19 11:24:19;;;;;;;13.75;7.43;;;;;;;31.30;42.10;95750.03;5054669;28;20047;-70
2021/07/19 11:26:57;;;;;;;10.68;7.45;;;;;;;31.34;42.02;95745.03;5054696;28;20087;-70